createdAt,value
2017-07-20T00:00:33.649Z,25.90
2017-07-20T00:03:01.199Z,26.00
2017-07-20T00:05:28.701Z,26.00
2017-07-20T00:07:56.286Z,26.00
2017-07-20T00:10:23.822Z,26.00
2017-07-20T00:12:51.376Z,26.00
2017-07-20T00:15:18.911Z,26.10
2017-07-20T00:17:46.447Z,26.00
2017-07-20T00:20:14.748Z,25.90
2017-07-20T00:22:42.284Z,25.90
2017-07-20T00:25:09.820Z,25.90
2017-07-20T00:27:37.358Z,26.10
2017-07-20T00:30:04.895Z,26.00
2017-07-20T00:32:32.477Z,26.00
2017-07-20T00:34:59.986Z,26.00
2017-07-20T00:37:28.271Z,26.00
2017-07-20T00:39:55.857Z,25.90
2017-07-20T00:42:23.384Z,25.90
2017-07-20T00:44:50.949Z,25.90
2017-07-20T00:47:19.257Z,25.90
2017-07-20T00:49:46.790Z,25.90
2017-07-20T00:52:15.076Z,25.90
2017-07-20T00:54:42.661Z,25.90
2017-07-20T00:57:10.202Z,25.90
2017-07-20T00:59:37.783Z,25.90
2017-07-20T01:02:05.286Z,25.90
2017-07-20T01:04:32.850Z,26.00
2017-07-20T01:07:00.371Z,26.10
2017-07-20T01:09:27.899Z,26.00
2017-07-20T01:11:55.425Z,25.90
2017-07-20T01:14:22.995Z,25.90
2017-07-20T01:16:50.530Z,26.00
2017-07-20T01:19:18.077Z,26.10
2017-07-20T01:21:45.575Z,26.10
2017-07-20T01:24:13.134Z,26.10
2017-07-20T01:26:41.420Z,26.10
2017-07-20T01:29:08.956Z,26.00
2017-07-20T01:31:36.485Z,26.10
2017-07-20T01:34:04.072Z,26.00
2017-07-20T01:36:31.594Z,26.10
2017-07-20T01:38:59.155Z,26.10
2017-07-20T01:41:26.656Z,26.00
2017-07-20T01:43:54.198Z,26.10
2017-07-20T01:46:21.714Z,26.10
2017-07-20T01:48:49.298Z,26.00
2017-07-20T01:51:16.826Z,26.00
2017-07-20T01:53:45.130Z,26.00
2017-07-20T01:56:12.666Z,26.00
2017-07-20T01:58:40.221Z,26.00
2017-07-20T02:01:07.725Z,26.00
2017-07-20T02:03:35.261Z,26.00
2017-07-20T02:06:02.774Z,26.00
2017-07-20T02:08:30.316Z,25.90
2017-07-20T02:10:57.834Z,26.00
2017-07-20T02:13:25.364Z,25.90
2017-07-20T02:15:53.666Z,26.00
2017-07-20T02:18:21.199Z,26.00
2017-07-20T02:20:49.486Z,26.00
2017-07-20T02:23:17.062Z,26.00
2017-07-20T02:25:44.571Z,26.00
2017-07-20T02:28:12.137Z,25.90
2017-07-20T02:30:39.699Z,26.00
2017-07-20T02:33:07.223Z,25.90
2017-07-20T02:35:34.761Z,25.80
2017-07-20T02:38:02.283Z,25.80
2017-07-20T02:40:29.820Z,25.90
2017-07-20T02:42:57.375Z,25.90
2017-07-20T02:45:24.949Z,25.90
2017-07-20T02:47:52.501Z,25.90
2017-07-20T02:50:20.075Z,25.90
2017-07-20T02:52:47.637Z,25.90
2017-07-20T02:55:15.265Z,25.90
2017-07-20T02:57:42.794Z,25.90
2017-07-20T03:00:10.358Z,25.90
2017-07-20T03:02:37.890Z,25.90
2017-07-20T03:05:05.420Z,25.90
2017-07-20T03:07:32.927Z,25.90
2017-07-20T03:10:00.486Z,25.90
2017-07-20T03:12:27.999Z,25.90
2017-07-20T03:14:55.559Z,25.90
2017-07-20T03:17:23.096Z,25.90
2017-07-20T03:19:50.636Z,25.90
2017-07-20T03:22:30.337Z,25.90
2017-07-20T03:24:57.884Z,25.80
2017-07-20T03:27:25.398Z,25.90
2017-07-20T03:29:52.952Z,25.90
2017-07-20T03:32:20.487Z,26.00
2017-07-20T03:34:48.015Z,25.90
2017-07-20T03:37:15.571Z,25.90
2017-07-20T03:39:43.129Z,25.90
2017-07-20T03:42:10.669Z,26.00
2017-07-20T03:44:38.218Z,25.90
2017-07-20T03:47:05.756Z,25.90
2017-07-20T03:49:34.061Z,26.10
2017-07-20T03:52:01.592Z,26.00
2017-07-20T03:54:29.919Z,26.10
2017-07-20T03:56:57.438Z,26.00
2017-07-20T03:59:25.004Z,26.10
2017-07-20T04:01:52.539Z,26.00
2017-07-20T04:04:20.101Z,26.00
2017-07-20T04:06:47.618Z,26.00
2017-07-20T04:09:15.155Z,26.00
2017-07-20T04:11:42.664Z,26.00
2017-07-20T04:14:10.222Z,25.90
2017-07-20T04:16:37.742Z,26.00
2017-07-20T04:19:05.267Z,25.90
2017-07-20T04:21:32.785Z,25.90
2017-07-20T04:24:00.305Z,25.90
2017-07-20T04:26:27.863Z,25.80
2017-07-20T04:28:55.430Z,25.70
2017-07-20T04:31:22.995Z,25.20
2017-07-20T04:33:50.494Z,25.00
2017-07-20T04:36:18.094Z,24.50
2017-07-20T04:38:45.615Z,24.90
2017-07-20T04:41:13.178Z,25.10
2017-07-20T04:43:40.694Z,25.30
2017-07-20T04:46:08.222Z,25.40
2017-07-20T04:48:36.534Z,25.00
2017-07-20T04:51:04.090Z,25.00
2017-07-20T04:53:31.647Z,25.20
2017-07-20T04:55:59.213Z,25.30
2017-07-20T04:58:26.719Z,25.30
2017-07-20T05:00:54.238Z,25.40
2017-07-20T05:03:21.772Z,25.20
2017-07-20T05:05:50.079Z,24.70
2017-07-20T05:08:17.583Z,24.70
2017-07-20T05:10:45.137Z,24.60
2017-07-20T05:13:12.648Z,24.50
2017-07-20T05:15:40.196Z,24.70
2017-07-20T05:18:07.734Z,24.40
2017-07-20T05:20:36.047Z,24.50
2017-07-20T05:23:03.567Z,24.50
2017-07-20T05:25:31.876Z,24.80
2017-07-20T05:27:59.431Z,24.80
2017-07-20T05:30:26.963Z,24.90
2017-07-20T05:32:54.501Z,24.80
2017-07-20T05:35:22.062Z,24.30
2017-07-20T05:37:49.609Z,23.90
2017-07-20T05:40:17.132Z,24.10
2017-07-20T05:42:44.701Z,24.50
2017-07-20T05:45:12.256Z,24.20
2017-07-20T05:47:39.818Z,24.20
2017-07-20T05:50:07.370Z,24.30
2017-07-20T05:52:34.904Z,24.70
2017-07-20T05:55:03.223Z,24.60
2017-07-20T05:57:30.734Z,24.60
2017-07-20T05:59:58.303Z,24.90
2017-07-20T06:02:26.598Z,25.50
2017-07-20T06:04:54.122Z,25.40
2017-07-20T06:07:21.669Z,25.60
2017-07-20T06:09:49.183Z,25.70
2017-07-20T06:12:16.742Z,25.90
2017-07-20T06:14:44.247Z,26.00
2017-07-20T06:17:11.812Z,26.10
2017-07-20T06:19:39.351Z,26.20
2017-07-20T06:22:06.936Z,26.20
2017-07-20T06:24:34.486Z,26.40
2017-07-20T06:27:02.055Z,26.30
2017-07-20T06:29:29.577Z,26.40
2017-07-20T06:31:57.099Z,26.50
2017-07-20T06:34:25.446Z,26.60
2017-07-20T06:36:53.004Z,26.60
2017-07-20T06:39:20.568Z,26.50
2017-07-20T06:41:48.090Z,26.70
2017-07-20T06:44:15.629Z,27.00
2017-07-20T06:46:43.202Z,27.20
2017-07-20T06:49:10.755Z,27.20
2017-07-20T06:51:38.342Z,27.10
2017-07-20T06:54:05.886Z,26.70
2017-07-20T06:56:33.492Z,26.50
2017-07-20T06:59:00.990Z,26.80
2017-07-20T07:01:28.535Z,26.40
2017-07-20T07:03:56.806Z,26.20
2017-07-20T07:06:24.357Z,26.30
2017-07-20T07:08:51.862Z,26.50
2017-07-20T07:11:19.438Z,26.80
2017-07-20T07:13:47.023Z,27.00
2017-07-20T07:16:14.590Z,27.20
2017-07-20T07:18:42.179Z,27.50
2017-07-20T07:21:09.762Z,27.00
2017-07-20T07:23:37.260Z,26.40
2017-07-20T07:26:04.795Z,25.90
2017-07-20T07:28:32.318Z,25.60
2017-07-20T07:30:59.877Z,25.40
2017-07-20T07:33:28.154Z,25.20
2017-07-20T07:35:55.711Z,25.20
2017-07-20T07:38:23.276Z,25.10
2017-07-20T07:40:51.568Z,25.00
2017-07-20T07:43:19.106Z,24.90
2017-07-20T07:45:46.705Z,25.20
2017-07-20T07:48:14.243Z,25.00
2017-07-20T07:50:42.523Z,24.80
2017-07-20T07:53:10.081Z,24.80
2017-07-20T07:55:37.585Z,25.10
2017-07-20T07:58:05.143Z,25.20
2017-07-20T08:00:32.699Z,25.40
2017-07-20T08:03:00.233Z,24.80
2017-07-20T08:05:27.783Z,25.20
2017-07-20T08:07:55.487Z,25.70
2017-07-20T08:10:23.020Z,26.10
2017-07-20T08:12:50.577Z,26.10
2017-07-20T08:15:18.107Z,25.70
2017-07-20T08:17:46.413Z,25.30
2017-07-20T08:20:13.926Z,25.30
2017-07-20T08:22:41.474Z,25.60
2017-07-20T08:25:08.993Z,25.20
2017-07-20T08:27:36.551Z,25.20
2017-07-20T08:30:04.055Z,25.30
2017-07-20T08:32:31.570Z,25.30
2017-07-20T08:34:59.102Z,25.50
2017-07-20T08:37:26.648Z,25.60
2017-07-20T08:39:54.196Z,25.00
2017-07-20T08:42:21.755Z,25.20
2017-07-20T08:44:49.288Z,25.40
2017-07-20T08:47:16.863Z,25.60
2017-07-20T08:49:44.397Z,25.60
2017-07-20T08:52:11.931Z,26.00
2017-07-20T08:54:39.457Z,26.20
2017-07-20T08:57:06.986Z,26.10
2017-07-20T08:59:34.501Z,25.90
2017-07-20T09:02:02.072Z,25.90
2017-07-20T09:04:29.582Z,26.00
2017-07-20T09:06:57.130Z,26.30
2017-07-20T09:09:24.678Z,26.30
2017-07-20T09:11:52.239Z,26.60
2017-07-20T09:14:19.823Z,27.10
2017-07-20T09:16:47.381Z,27.00
2017-07-20T09:19:14.894Z,27.40
2017-07-20T09:21:42.435Z,27.50
2017-07-20T09:24:10.718Z,27.00
2017-07-20T09:26:39.127Z,27.20
2017-07-20T09:29:06.663Z,27.10
2017-07-20T09:31:34.202Z,27.10
2017-07-20T09:34:01.751Z,27.10
2017-07-20T09:36:29.326Z,27.20
2017-07-20T09:38:56.849Z,27.30
2017-07-20T09:41:24.378Z,27.70
2017-07-20T09:43:51.932Z,27.80
2017-07-20T09:46:19.442Z,27.00
2017-07-20T09:48:46.993Z,27.30
2017-07-20T09:51:14.529Z,26.80
2017-07-20T09:53:42.134Z,26.80
2017-07-20T09:56:09.684Z,26.60
2017-07-20T09:58:37.262Z,26.50
2017-07-20T10:01:04.794Z,27.00
2017-07-20T10:03:32.351Z,27.00
2017-07-20T10:05:59.891Z,27.70
2017-07-20T10:08:27.426Z,28.20
2017-07-20T10:10:55.708Z,27.50
2017-07-20T10:13:23.254Z,27.40
2017-07-20T10:15:51.542Z,26.90
2017-07-20T10:18:19.114Z,26.90
2017-07-20T10:20:46.666Z,27.00
2017-07-20T10:23:14.192Z,27.20
2017-07-20T10:25:41.712Z,27.50
2017-07-20T10:28:09.260Z,27.20
2017-07-20T10:30:36.822Z,27.00
2017-07-20T10:33:04.389Z,27.30
2017-07-20T10:35:31.923Z,27.40
2017-07-20T10:37:59.477Z,27.30
2017-07-20T10:40:26.989Z,27.50
2017-07-20T10:42:54.546Z,27.80
2017-07-20T10:45:22.099Z,27.60
2017-07-20T10:47:49.674Z,28.00
2017-07-20T10:50:17.180Z,27.70
2017-07-20T10:52:44.731Z,27.80
2017-07-20T10:55:13.009Z,26.90
2017-07-20T10:57:41.298Z,27.00
2017-07-20T11:00:08.810Z,27.00
2017-07-20T11:02:36.346Z,27.40
2017-07-20T11:05:03.873Z,27.50
2017-07-20T11:07:31.428Z,27.70
2017-07-20T11:09:59.716Z,28.30
2017-07-20T11:12:27.279Z,28.20
2017-07-20T11:14:54.822Z,28.10
2017-07-20T11:17:22.358Z,27.80
2017-07-20T11:19:49.889Z,27.60
2017-07-20T11:22:17.450Z,27.70
2017-07-20T11:24:44.954Z,27.80
2017-07-20T11:27:13.232Z,28.10
2017-07-20T11:29:40.818Z,28.10
2017-07-20T11:32:08.318Z,28.20
2017-07-20T11:34:35.866Z,28.40
2017-07-20T11:37:03.403Z,28.40
2017-07-20T11:39:31.004Z,28.40
2017-07-20T11:41:58.506Z,28.90
2017-07-20T11:44:26.026Z,29.30
2017-07-20T11:46:53.529Z,29.30
2017-07-20T11:49:21.049Z,29.50
2017-07-20T11:51:48.558Z,29.60
2017-07-20T11:54:16.106Z,29.20
2017-07-20T11:56:43.625Z,29.20
2017-07-20T11:59:11.178Z,28.70
2017-07-20T12:01:38.690Z,28.70
2017-07-20T12:04:06.210Z,29.40
2017-07-20T12:06:36.066Z,30.00
2017-07-20T12:09:04.452Z,30.80
2017-07-20T12:11:31.998Z,30.80
2017-07-20T12:13:59.540Z,30.60
2017-07-20T12:16:27.894Z,30.50
2017-07-20T12:18:55.458Z,30.50
2017-07-20T12:21:23.805Z,29.90
2017-07-20T12:23:51.321Z,29.90
2017-07-20T12:26:19.600Z,29.60
2017-07-20T12:28:47.878Z,29.70
2017-07-20T12:31:15.409Z,29.80
2017-07-20T12:33:42.933Z,29.70
2017-07-20T12:36:10.431Z,29.30
2017-07-20T12:38:37.955Z,29.20
2017-07-20T12:41:06.327Z,29.10
2017-07-20T12:43:33.866Z,29.00
2017-07-20T12:46:01.398Z,29.30
2017-07-20T12:50:53.796Z,29.50
2017-07-20T12:53:21.564Z,29.80
2017-07-20T12:55:49.346Z,30.20
2017-07-20T12:58:18.119Z,29.70
2017-07-20T13:00:45.694Z,29.90
2017-07-20T13:03:13.254Z,29.40
2017-07-20T13:05:40.795Z,29.90
2017-07-20T13:08:08.331Z,30.60
2017-07-20T13:10:35.869Z,30.40
2017-07-20T13:13:04.149Z,31.10
2017-07-20T13:15:32.473Z,30.90
2017-07-20T13:17:59.989Z,30.90
2017-07-20T13:20:27.550Z,30.60
2017-07-20T13:22:55.838Z,30.90
2017-07-20T13:25:24.125Z,31.20
2017-07-20T13:27:51.690Z,31.20
2017-07-20T13:30:19.211Z,31.20
2017-07-20T13:32:46.894Z,30.80
2017-07-20T13:35:15.219Z,30.30
2017-07-20T13:37:43.530Z,30.90
2017-07-20T13:40:11.578Z,31.30
2017-07-20T13:42:40.321Z,31.50
2017-07-20T13:45:07.886Z,32.00
2017-07-20T13:47:35.422Z,32.20
2017-07-20T13:50:03.758Z,32.60
2017-07-20T13:52:31.299Z,32.60
2017-07-20T13:54:59.026Z,32.40
2017-07-20T13:57:26.724Z,32.20
2017-07-20T13:59:54.275Z,32.30
2017-07-20T14:02:21.788Z,32.70
2017-07-20T14:04:49.350Z,31.50
2017-07-20T14:07:16.871Z,31.00
2017-07-20T14:09:44.394Z,31.00
2017-07-20T14:12:12.676Z,31.10
2017-07-20T14:14:41.038Z,31.30
2017-07-20T14:17:11.322Z,31.70
2017-07-20T14:19:39.492Z,31.70
2017-07-20T14:22:08.280Z,32.10
2017-07-20T14:24:35.811Z,31.80
2017-07-20T14:27:03.328Z,31.60
2017-07-20T14:29:30.912Z,31.10
2017-07-20T14:31:59.025Z,31.30
2017-07-20T14:34:26.567Z,31.60
2017-07-20T14:36:54.102Z,32.00
2017-07-20T14:39:22.441Z,32.70
2017-07-20T14:41:49.986Z,32.60
2017-07-20T14:44:17.521Z,31.80
2017-07-20T14:46:45.054Z,31.90
2017-07-20T14:49:13.336Z,31.40
2017-07-20T14:51:40.892Z,31.30
2017-07-20T14:54:09.196Z,31.00
2017-07-20T14:56:36.738Z,30.90
2017-07-20T14:59:05.043Z,31.10
2017-07-20T15:01:32.608Z,31.10
2017-07-20T15:04:00.162Z,31.10
2017-07-20T15:06:27.732Z,30.70
2017-07-20T15:08:55.266Z,30.70
2017-07-20T15:11:22.810Z,30.60
2017-07-20T15:13:52.795Z,30.20
2017-07-20T15:16:29.062Z,30.20
2017-07-20T15:19:04.764Z,30.20
2017-07-20T15:21:32.298Z,31.00
2017-07-20T15:24:00.595Z,31.20
2017-07-20T15:26:28.127Z,31.20
2017-07-20T15:28:56.406Z,31.50
2017-07-20T15:31:24.718Z,31.90
2017-07-20T15:33:52.268Z,31.90
2017-07-20T15:36:19.808Z,32.00
2017-07-20T15:38:48.069Z,31.90
2017-07-20T15:41:15.691Z,31.90
2017-07-20T15:43:43.191Z,31.80
2017-07-20T15:46:10.714Z,31.80
2017-07-20T15:48:38.246Z,31.50
2017-07-20T15:51:05.792Z,31.30
2017-07-20T15:53:34.072Z,31.20
2017-07-20T15:56:02.358Z,30.90
2017-07-20T15:58:29.882Z,30.80
2017-07-20T16:00:57.436Z,30.40
2017-07-20T16:03:24.979Z,30.70
2017-07-20T16:05:52.538Z,31.00
2017-07-20T16:08:20.054Z,30.60
2017-07-20T16:10:47.586Z,31.00
2017-07-20T16:13:15.859Z,30.70
2017-07-20T16:18:18.191Z,30.60
2017-07-20T16:20:45.714Z,30.60
2017-07-20T16:23:13.257Z,30.40
2017-07-20T16:25:40.842Z,30.90
2017-07-20T16:28:08.370Z,31.00
2017-07-20T16:30:35.907Z,30.60
2017-07-20T16:33:03.660Z,30.40
2017-07-20T16:35:31.162Z,30.50
2017-07-20T16:37:58.710Z,29.90
2017-07-20T16:40:26.238Z,29.90
2017-07-20T16:42:53.771Z,30.20
2017-07-20T16:45:21.329Z,30.00
2017-07-20T16:47:49.658Z,30.30
2017-07-20T16:50:17.171Z,30.30
2017-07-20T16:52:45.495Z,29.40
2017-07-20T16:55:13.014Z,29.30
2017-07-20T16:57:40.601Z,29.70
2017-07-20T17:00:08.169Z,29.50
2017-07-20T17:02:35.703Z,29.30
2017-07-20T17:05:03.241Z,29.60
2017-07-20T17:07:30.821Z,29.30
2017-07-20T17:09:58.346Z,29.80
2017-07-20T17:12:25.887Z,29.50
2017-07-20T17:14:53.406Z,29.50
2017-07-20T17:17:20.954Z,29.30
2017-07-20T17:19:48.464Z,29.80
2017-07-20T17:22:15.997Z,30.00
2017-07-20T17:24:43.583Z,29.70
2017-07-20T17:27:11.148Z,30.00
2017-07-20T17:29:38.686Z,29.30
2017-07-20T17:32:06.250Z,29.60
2017-07-20T17:34:33.786Z,29.70
2017-07-20T17:37:01.366Z,29.60
2017-07-20T17:39:28.889Z,29.60
2017-07-20T17:41:57.198Z,29.90
2017-07-20T17:44:24.801Z,29.90
2017-07-20T17:46:52.370Z,29.70
2017-07-20T17:49:19.892Z,29.60
2017-07-20T17:51:47.413Z,29.70
2017-07-20T17:54:14.978Z,29.70
2017-07-20T17:56:42.538Z,29.70
2017-07-20T17:59:10.105Z,29.60
2017-07-20T18:01:37.639Z,28.90
2017-07-20T18:04:05.911Z,29.20
2017-07-20T18:06:33.471Z,29.20
2017-07-20T18:09:01.761Z,29.70
2017-07-20T18:11:29.318Z,29.70
2017-07-20T18:16:36.539Z,29.80
2017-07-20T18:19:04.059Z,29.50
2017-07-20T18:21:31.604Z,29.30
2017-07-20T18:23:59.163Z,29.10
2017-07-20T18:26:26.675Z,29.30
2017-07-20T18:28:54.230Z,29.10
2017-07-20T18:31:21.758Z,29.20
2017-07-20T18:33:49.289Z,29.00
2017-07-20T18:36:16.827Z,28.90
2017-07-20T18:38:44.370Z,28.20
2017-07-20T18:41:11.904Z,28.00
2017-07-20T18:43:40.196Z,28.60
2017-07-20T18:46:08.507Z,28.80
2017-07-20T18:48:36.054Z,28.70
2017-07-20T18:51:03.587Z,29.00
2017-07-20T18:53:31.143Z,28.70
2017-07-20T18:55:59.442Z,28.60
2017-07-20T18:58:27.002Z,28.60
2017-07-20T19:00:54.522Z,27.90
2017-07-20T19:03:22.089Z,27.80
2017-07-20T19:05:49.599Z,27.80
2017-07-20T19:08:17.136Z,26.90
2017-07-20T19:10:44.666Z,26.90
2017-07-20T19:13:12.199Z,26.10
2017-07-20T19:15:39.786Z,25.90
2017-07-20T19:18:07.320Z,26.10
2017-07-20T19:20:34.847Z,26.00
2017-07-20T19:23:02.376Z,26.10
2017-07-20T19:25:30.648Z,26.00
2017-07-20T19:27:58.973Z,26.10
2017-07-20T19:30:26.485Z,26.10
2017-07-20T19:32:54.047Z,26.10
2017-07-20T19:35:22.332Z,25.70
2017-07-20T19:37:49.879Z,25.60
2017-07-20T19:40:17.398Z,25.70
2017-07-20T19:42:44.954Z,25.80
2017-07-20T19:45:12.541Z,26.00
2017-07-20T19:47:40.114Z,25.80
2017-07-20T19:50:07.645Z,26.10
2017-07-20T19:52:35.207Z,25.90
2017-07-20T19:55:02.723Z,25.20
2017-07-20T19:57:30.256Z,24.80
2017-07-20T19:59:57.839Z,25.10
2017-07-20T20:02:25.344Z,25.30
2017-07-20T20:04:52.911Z,25.00
2017-07-20T20:07:20.457Z,25.50
2017-07-20T20:09:47.986Z,25.70
2017-07-20T20:12:15.556Z,25.90
2017-07-20T20:14:43.072Z,25.90
2017-07-20T20:17:10.618Z,26.10
2017-07-20T20:19:38.164Z,26.00
2017-07-20T20:22:05.700Z,26.00
2017-07-20T20:24:33.246Z,26.00
2017-07-20T20:27:00.755Z,25.80
2017-07-20T20:29:28.306Z,25.90
2017-07-20T20:31:55.827Z,25.80
2017-07-20T20:34:23.377Z,26.00
2017-07-20T20:36:50.922Z,26.20
2017-07-20T20:39:18.466Z,26.30
2017-07-20T20:41:46.026Z,26.40
2017-07-20T20:44:13.554Z,26.60
2017-07-20T20:46:41.106Z,26.70
2017-07-20T20:49:08.662Z,26.50
2017-07-20T20:51:36.164Z,26.60
2017-07-20T20:54:03.690Z,26.50
2017-07-20T20:56:31.244Z,26.20
2017-07-20T20:58:58.777Z,26.00
2017-07-20T21:01:26.314Z,26.20
2017-07-20T21:03:54.635Z,26.10
2017-07-20T21:06:22.146Z,26.10
2017-07-20T21:08:50.459Z,25.60
2017-07-20T21:11:17.978Z,25.50
2017-07-20T21:13:45.506Z,25.50
2017-07-20T21:16:13.066Z,24.90
2017-07-20T21:18:40.642Z,25.30
2017-07-20T21:21:08.187Z,25.50
2017-07-20T21:23:35.723Z,25.20
2017-07-20T21:26:03.263Z,25.20
2017-07-20T21:28:30.808Z,25.40
2017-07-20T21:30:58.309Z,25.40
2017-07-20T21:33:25.858Z,25.20
2017-07-20T21:35:53.399Z,25.30
2017-07-20T21:38:20.923Z,25.30
2017-07-20T21:40:48.429Z,25.40
2017-07-20T21:43:15.974Z,25.50
2017-07-20T21:45:43.473Z,25.30
2017-07-20T21:48:11.009Z,25.50
2017-07-20T21:50:38.561Z,25.20
2017-07-20T21:53:06.090Z,25.60
2017-07-20T21:55:33.638Z,25.00
2017-07-20T21:58:01.198Z,24.60
2017-07-20T22:00:28.766Z,24.20
2017-07-20T22:02:56.271Z,23.90
2017-07-20T22:05:23.805Z,23.60
2017-07-20T22:07:52.099Z,23.90
2017-07-20T22:10:19.688Z,23.90
2017-07-20T22:12:47.183Z,23.80
2017-07-20T22:15:14.759Z,23.50
2017-07-20T22:17:42.282Z,23.80
2017-07-20T22:20:09.805Z,23.60
2017-07-20T22:22:37.373Z,23.70
2017-07-20T22:25:04.914Z,23.60
2017-07-20T22:27:32.451Z,23.90
2017-07-20T22:29:59.966Z,23.90
2017-07-20T22:32:27.517Z,24.00
2017-07-20T22:34:55.065Z,24.10
2017-07-20T22:37:22.639Z,23.80
2017-07-20T22:39:50.199Z,23.90
2017-07-20T22:42:17.734Z,24.00
2017-07-20T22:44:45.294Z,24.00
2017-07-20T22:47:12.812Z,24.00
2017-07-20T22:49:40.346Z,24.20
2017-07-20T22:52:07.880Z,24.00
2017-07-20T22:54:35.407Z,23.90
2017-07-20T22:57:02.962Z,23.70
2017-07-20T22:59:31.288Z,23.90
2017-07-20T23:01:58.842Z,23.90
2017-07-20T23:04:26.406Z,24.10
2017-07-20T23:06:53.926Z,23.90
2017-07-20T23:09:21.455Z,23.80
2017-07-20T23:11:48.984Z,23.90
2017-07-20T23:14:16.513Z,24.10
2017-07-20T23:16:44.794Z,24.20
2017-07-20T23:19:13.125Z,24.30
2017-07-20T23:21:40.666Z,24.30
2017-07-20T23:24:08.254Z,23.80
2017-07-20T23:26:35.754Z,24.00
2017-07-20T23:29:03.330Z,23.90
2017-07-20T23:31:30.869Z,23.70
2017-07-20T23:33:59.162Z,23.70
2017-07-20T23:36:26.722Z,23.60
2017-07-20T23:38:54.242Z,23.80
2017-07-20T23:41:21.775Z,23.60
2017-07-20T23:43:49.306Z,23.30
2017-07-20T23:46:16.866Z,23.30
2017-07-20T23:48:44.447Z,23.30
2017-07-20T23:51:12.022Z,23.30
2017-07-20T23:53:39.565Z,23.60
2017-07-20T23:56:07.154Z,23.70
2017-07-20T23:58:34.680Z,23.80
